Terminal Aerodrome Forecast
Issued by NWS Lake Charles, LA

Home | Current Version | Previous Version | Text Only | Print | Product List | Glossary On
Versions: 1 2 3 4 5 6 7 8 9 10 11 12 13 14 15 16 17
000
FTUS44 KLCH 261720
TAFLCH
TAF
KLCH 261720Z 2618/2718 18006KT P6SM SCT015 BKN050
      TEMPO 2618/2622 BKN015 OVC050
     FM270100 VRB03KT P6SM SCT035 BKN150
     FM270600 10012KT P6SM VCSH SCT025 OVC035
      TEMPO 2710/2714 4SM -SHRA OVC025
     FM271400 09016G24KT 6SM SHRA VCTS OVC025CB
      TEMPO 2714/2718 VRB25G40KT 1/2SM +TSRA OVC005CB=

USA.gov is the U.S. government's official web portal to all federal, state and local government web resources and services.